Time;durP1;ratioP1;P1;durP2;ratioP2;P2;SDS_P1;SDS_P2;PMS_P1;PMS_P2;Temp;Humidity;BMP_temperature;BMP_pressure;BME280_temperature;BME280_humidity;BME280_pressure;Samples;Min_cycle;Max_cycle;Signal;HPM_P1;HPM_P2
2021/05/04 00:03:48;;;;;;;5.63;4.70;;;;;;;3.76;100.00;100453.25;20675906;28;20298;-58
2021/05/04 00:13:49;;;;;;;5.53;4.83;;;;;;;3.54;100.00;100447.00;20673406;28;20340;-60
2021/05/04 00:23:49;;;;;;;4.60;4.10;;;;;;;3.41;100.00;100443.91;20674009;28;20811;-60
2021/05/04 00:33:50;;;;;;;4.63;4.13;;;;;;;3.34;100.00;100436.25;20693168;28;20233;-58
2021/05/04 00:43:51;;;;;;;4.93;4.43;;;;;;;3.28;100.00;100431.16;20671984;28;20236;-60
2021/05/04 00:53:51;;;;;;;5.15;4.22;;;;;;;3.18;100.00;100420.91;20692090;28;20237;-59
2021/05/04 01:03:52;;;;;;;6.07;4.53;;;;;;;3.11;100.00;100414.13;20670785;28;20251;-58
2021/05/04 01:13:55;;;;;;;4.67;4.20;;;;;;;3.09;100.00;100418.59;20668293;28;20252;-57
2021/05/04 01:34:03;;;;;;;7.60;5.53;;;;;;;3.09;100.00;100434.41;20837334;28;21171;-62
2021/05/04 01:53:59;;;;;;;7.37;5.60;;;;;;;3.05;100.00;100395.88;20849807;27;20549;-63
2021/05/04 02:03:59;;;;;;;7.40;5.03;;;;;;;3.00;100.00;100389.03;20838659;28;20258;-63
2021/05/04 02:14:00;;;;;;;5.37;4.87;;;;;;;2.87;100.00;100383.28;20835033;28;20266;-65
2021/05/04 02:24:00;;;;;;;6.30;5.20;;;;;;;2.77;100.00;100381.84;20845935;28;20732;-63
2021/05/04 02:34:01;;;;;;;6.67;5.83;;;;;;;2.63;100.00;100384.06;20843785;28;20239;-58
2021/05/04 02:44:02;;;;;;;7.83;5.90;;;;;;;2.48;100.00;100377.47;20828001;28;20310;-58
2021/05/04 02:54:03;;;;;;;6.07;5.13;;;;;;;2.40;100.00;100375.09;20866028;28;20216;-65
2021/05/04 03:04:03;;;;;;;7.70;5.60;;;;;;;2.33;100.00;100363.00;20794894;28;20227;-58
2021/05/04 03:23:59;;;;;;;9.13;6.03;;;;;;;2.35;100.00;100366.44;20852395;27;21315;-59
2021/05/04 03:34:00;;;;;;;7.83;6.03;;;;;;;2.54;100.00;100340.41;20841035;28;20281;-57
2021/05/04 03:53:55;;;;;;;7.93;5.20;;;;;;;5.25;100.00;100367.44;20742393;28;21183;-63
2021/05/04 04:03:56;;;;;;;6.00;4.73;;;;;;;6.59;100.00;100359.69;20740390;28;20305;-58
2021/05/04 04:13:56;;;;;;;7.13;5.07;;;;;;;7.63;99.37;100352.75;20738023;28;20279;-61
2021/05/04 04:23:57;;;;;;;7.07;5.40;;;;;;;8.41;94.05;100345.97;20737133;28;20261;-59
2021/05/04 04:33:57;;;;;;;6.90;5.20;;;;;;;7.85;90.26;100345.38;20737268;28;20869;-57
2021/05/04 04:43:57;;;;;;;6.13;5.27;;;;;;;7.30;92.75;100339.41;20736432;28;20228;-56
2021/05/04 04:53:58;;;;;;;5.97;5.37;;;;;;;7.51;95.75;100343.59;20777235;28;20223;-58
2021/05/04 05:03:59;;;;;;;5.13;4.63;;;;;;;7.74;94.25;100329.13;20748343;28;20229;-57
2021/05/04 05:13:59;;;;;;;5.37;4.87;;;;;;;7.70;93.52;100321.44;20740930;28;20282;-56
2021/05/04 05:24:00;;;;;;;6.70;5.00;;;;;;;7.80;92.24;100317.34;20740529;28;20247;-57
2021/05/04 05:34:01;;;;;;;5.70;4.87;;;;;;;8.16;92.39;100319.81;20739670;28;20252;-59
2021/05/04 05:44:03;;;;;;;5.73;4.73;;;;;;;8.54;91.91;100315.94;20738401;28;20240;-63
2021/05/04 05:54:04;;;;;;;5.10;4.70;;;;;;;9.15;89.18;100312.44;20739395;28;20238;-58
2021/05/04 06:04:04;;;;;;;5.70;5.10;;;;;;;9.65;85.98;100296.13;20738441;28;20373;-61
2021/05/04 06:14:05;;;;;;;4.85;4.45;;;;;;;10.12;84.39;100289.66;20735592;28;20223;-58
2021/05/04 06:24:06;;;;;;;5.30;4.23;;;;;;;10.58;77.99;100281.41;20736016;28;20215;-58
2021/05/04 06:34:09;;;;;;;4.37;3.80;;;;;;;11.13;79.50;100252.75;20736117;28;20216;-60
2021/05/04 06:44:10;;;;;;;4.77;3.30;;;;;;;11.87;75.55;100251.22;20735146;28;20221;-59
2021/05/04 06:54:10;;;;;;;6.30;3.30;;;;;;;12.34;72.38;100236.25;20734961;28;20217;-59
2021/05/04 07:04:13;;;;;;;3.80;3.40;;;;;;;12.68;70.15;100227.44;20732923;28;20229;-60
2021/05/04 07:14:13;;;;;;;8.17;5.07;;;;;;;13.13;65.45;100204.41;20733698;28;20632;-59
2021/05/04 07:24:14;;;;;;;4.00;3.40;;;;;;;13.76;68.81;100196.84;20732562;28;20218;-64
2021/05/04 07:34:15;;;;;;;2.72;2.47;;;;;;;14.23;65.47;100195.72;20732600;28;20749;-61
2021/05/04 07:44:15;;;;;;;3.87;2.40;;;;;;;14.10;62.70;100160.13;20731494;28;20242;-60
2021/05/04 07:54:18;;;;;;;3.53;2.50;;;;;;;14.32;65.03;100152.88;20730443;28;20778;-59
2021/05/04 08:04:18;;;;;;;2.70;2.50;;;;;;;14.78;61.15;100133.78;20731385;28;21048;-61
2021/05/04 08:14:19;;;;;;;2.87;2.40;;;;;;;15.53;57.63;100121.06;20730728;28;20247;-67
2021/05/04 08:24:19;;;;;;;3.03;2.80;;;;;;;15.91;55.01;100117.72;20730493;28;20224;-60
2021/05/04 08:34:23;;;;;;;2.60;2.40;;;;;;;16.59;56.20;100103.34;20735469;28;20212;-64
2021/05/04 08:44:24;;;;;;;3.00;2.80;;;;;;;16.71;53.14;100096.84;20744499;28;20229;-59
2021/05/04 08:54:24;;;;;;;2.57;2.37;;;;;;;16.87;52.73;100086.34;20742886;28;20209;-58
2021/05/04 09:04:28;;;;;;;2.93;2.70;;;;;;;16.20;52.42;100062.91;20743420;28;20708;-58
2021/05/04 09:24:42;;;;;;;2.67;2.40;;;;;;;15.63;55.56;100027.84;20741860;28;20223;-59
2021/05/04 09:34:48;;;;;;;2.80;2.60;;;;;;;15.69;54.10;100021.94;20723249;28;20213;-60
2021/05/04 09:44:50;;;;;;;2.60;2.40;;;;;;;15.88;57.07;100011.19;20739668;28;20710;-59
2021/05/04 09:54:51;;;;;;;3.10;2.90;;;;;;;15.99;57.50;99986.84;20738766;28;20212;-62
2021/05/04 10:04:52;;;;;;;2.90;2.40;;;;;;;16.66;54.90;99960.88;20738713;28;20232;-60
2021/05/04 10:14:53;;;;;;;2.60;2.07;;;;;;;18.02;51.62;99945.63;20738001;28;20216;-60
2021/05/04 10:24:54;;;;;;;2.47;2.27;;;;;;;18.66;52.81;99934.50;20737710;28;20800;-60
2021/05/04 10:34:54;;;;;;;3.07;2.87;;;;;;;18.26;51.63;99919.66;20735972;28;20241;-59
2021/05/04 10:44:58;;;;;;;6.40;2.83;;;;;;;18.56;49.90;99904.00;20734513;28;20750;-60
2021/05/04 10:54:58;;;;;;;2.60;2.40;;;;;;;18.76;51.50;99883.88;20735172;28;20601;-59
2021/05/04 11:04:59;;;;;;;3.10;2.80;;;;;;;18.29;51.53;99869.88;20733622;28;20248;-59
2021/05/04 11:15:20;;;;;;;3.67;3.37;;;;;;;18.17;46.03;99855.81;20734294;28;20213;-60
2021/05/04 11:25:35;;;;;;;3.00;2.70;;;;;;;17.85;44.14;99823.19;20733231;28;20232;-59
2021/05/04 11:35:36;;;;;;;3.00;2.53;;;;;;;18.30;50.17;99796.81;20732752;28;20296;-62
2021/05/04 11:45:37;;;;;;;2.47;2.27;;;;;;;19.08;50.00;99781.22;20732114;28;20230;-59
2021/05/04 11:55:44;;;;;;;4.03;2.30;;;;;;;19.19;49.98;99754.91;20732261;28;20266;-59
2021/05/04 12:05:46;;;;;;;3.10;2.30;;;;;;;18.93;48.91;99749.59;20731633;28;20356;-59
2021/05/04 12:15:48;;;;;;;2.20;2.10;;;;;;;19.06;50.40;99728.34;20747539;28;20247;-59
2021/05/04 12:25:52;;;;;;;2.83;2.63;;;;;;;18.98;49.20;99709.38;20747275;28;20304;-60
2021/05/04 12:35:59;;;;;;;2.80;2.60;;;;;;;18.78;50.42;99691.78;20747183;28;20354;-60
2021/05/04 12:46:20;;;;;;;2.60;2.40;;;;;;;19.00;51.45;99680.31;20745530;28;20722;-60
2021/05/04 12:56:20;;;;;;;2.83;2.30;;;;;;;18.65;51.41;99663.38;20740307;28;20763;-62
2021/05/04 13:06:24;;;;;;;3.00;2.80;;;;;;;18.60;49.51;99629.75;20743513;28;20249;-61
2021/05/04 13:36:59;;;;;;;3.07;2.83;;;;;;;17.53;52.84;99607.88;20645554;28;20222;-58
2021/05/04 13:57:19;;;;;;;3.63;2.70;;;;;;;17.46;54.17;99545.66;20605934;28;20697;-65
2021/05/04 14:27:58;;;;;;;4.03;3.10;;;;;;;17.06;52.91;99470.78;20672412;28;20315;-65
2021/05/04 14:38:14;;;;;;;3.30;2.73;;;;;;;16.83;55.00;99501.97;20674639;28;20231;-61
2021/05/04 15:08:18;;;;;;;2.87;2.67;;;;;;;16.43;58.53;99468.31;20690988;28;20711;-60
2021/05/04 15:28:51;;;;;;;2.60;2.50;;;;;;;16.32;60.61;99443.47;20664192;28;20236;-57
2021/05/04 15:38:52;;;;;;;3.63;2.90;;;;;;;16.10;61.62;99426.84;20703164;28;20213;-62
2021/05/04 15:48:58;;;;;;;3.33;3.13;;;;;;;16.27;61.62;99391.97;20734468;28;20587;-56
2021/05/04 16:09:19;;;;;;;3.57;3.27;;;;;;;15.97;60.98;99375.25;20729374;28;20914;-58
2021/05/04 16:19:24;;;;;;;3.13;2.83;;;;;;;15.73;58.69;99356.22;20729822;28;20264;-57
2021/05/04 16:39:35;;;;;;;5.57;3.43;;;;;;;15.32;53.74;99341.53;20727415;28;20222;-57
2021/05/04 16:49:37;;;;;;;3.03;2.80;;;;;;;15.31;55.84;99303.06;20727329;28;20768;-57
2021/05/04 16:59:38;;;;;;;3.20;3.00;;;;;;;15.16;59.87;99285.75;20737913;28;21030;-61
2021/05/04 17:09:51;;;;;;;2.97;2.77;;;;;;;14.86;61.03;99256.53;20727550;28;20302;-57
2021/05/04 17:19:52;;;;;;;4.30;3.20;;;;;;;14.63;60.76;99262.34;20720777;28;20745;-59
2021/05/04 17:29:52;;;;;;;4.67;3.10;;;;;;;14.47;61.62;99262.16;20718659;28;20232;-57
2021/05/04 17:39:52;;;;;;;3.70;3.23;;;;;;;14.30;63.51;99268.28;20739075;28;20266;-57
2021/05/04 17:49:53;;;;;;;4.17;3.50;;;;;;;14.23;61.25;99272.56;20716259;28;20235;-65
2021/05/04 17:59:55;;;;;;;4.03;3.63;;;;;;;14.27;62.70;99285.50;20676304;28;20220;-72
2021/05/04 18:10:03;;;;;;;4.73;4.33;;;;;;;14.17;63.97;99289.22;20673947;28;20249;-60
2021/05/04 18:30:24;;;;;;;4.20;3.77;;;;;;;13.82;67.22;99263.94;20671310;28;20232;-58
2021/05/04 18:40:38;;;;;;;3.93;3.63;;;;;;;13.57;67.62;99251.97;20669982;28;20754;-58
2021/05/04 19:42:25;;;;;;;3.03;2.67;;;;;;;13.26;67.71;99178.97;20732446;28;20221;-71
2021/05/04 20:12:46;;;;;;;3.13;2.83;;;;;;;12.90;69.45;99126.13;20718206;28;20768;-60
2021/05/04 20:22:48;;;;;;;3.20;2.73;;;;;;;12.73;71.15;99124.16;20730497;28;20309;-58
2021/05/04 20:32:50;;;;;;;2.73;2.30;;;;;;;12.58;72.04;99134.44;20739521;28;20984;-59
2021/05/04 20:42:51;;;;;;;3.40;3.10;;;;;;;12.53;71.70;99156.28;20750720;28;20220;-59
2021/05/04 20:52:53;;;;;;;3.73;3.40;;;;;;;12.45;72.47;99158.78;20744473;28;20724;-58
2021/05/04 21:02:54;;;;;;;3.73;3.30;;;;;;;12.38;72.61;99163.00;20741888;28;20914;-58
2021/05/04 21:12:55;;;;;;;3.60;3.30;;;;;;;12.29;73.02;99174.53;20742209;28;20278;-58
2021/05/04 21:32:57;;;;;;;4.90;3.80;;;;;;;12.28;73.79;99170.19;20739370;28;20901;-60
2021/05/04 21:42:58;;;;;;;4.00;3.50;;;;;;;12.25;73.28;99162.41;20739068;28;20224;-58
2021/05/04 21:52:58;;;;;;;5.43;4.30;;;;;;;12.24;73.16;99163.41;20738483;28;20252;-59
2021/05/04 22:02:59;;;;;;;5.27;4.13;;;;;;;12.26;73.74;99158.75;20739203;28;20227;-58
2021/05/04 22:13:26;;;;;;;4.57;3.80;;;;;;;12.24;74.67;99163.41;20737105;28;20220;-60
2021/05/04 22:44:28;;;;;;;4.90;4.40;;;;;;;11.99;78.58;99193.28;20734538;28;20255;-59
2021/05/04 23:25:04;;;;;;;5.73;5.20;;;;;;;11.19;86.92;99112.03;20732147;28;20786;-58
2021/05/04 23:35:07;;;;;;;6.20;5.60;;;;;;;10.90;89.45;99065.63;20732940;28;20259;-63
2021/05/04 23:45:09;;;;;;;6.57;5.57;;;;;;;11.03;92.09;99095.63;20731832;28;20225;-63
2021/05/04 23:55:10;;;;;;;9.10;6.90;;;;;;;10.72;92.10;99077.88;20730491;28;20727;-59
